sensor_id;sensor_type;location;lat;lon;timestamp;temperature;humidity
15113;DHT22;7657;50.140;7.076;2023-02-28T00:01:06;0.90;99.90
15113;DHT22;7657;50.140;7.076;2023-02-28T00:03:33;0.90;99.90
15113;DHT22;7657;50.140;7.076;2023-02-28T00:06:01;1.00;99.90
15113;DHT22;7657;50.140;7.076;2023-02-28T00:08:28;1.00;99.90
15113;DHT22;7657;50.140;7.076;2023-02-28T00:10:55;1.00;99.90
15113;DHT22;7657;50.140;7.076;2023-02-28T00:13:23;0.90;99.90
15113;DHT22;7657;50.140;7.076;2023-02-28T00:15:59;0.80;99.90
15113;DHT22;7657;50.140;7.076;2023-02-28T00:18:26;0.90;99.90
15113;DHT22;7657;50.140;7.076;2023-02-28T00:20:53;0.80;99.90
15113;DHT22;7657;50.140;7.076;2023-02-28T00:23:20;0.80;99.90
15113;DHT22;7657;50.140;7.076;2023-02-28T00:25:47;0.80;99.90
15113;DHT22;7657;50.140;7.076;2023-02-28T00:28:14;0.90;99.90
15113;DHT22;7657;50.140;7.076;2023-02-28T00:30:42;0.90;99.90
15113;DHT22;7657;50.140;7.076;2023-02-28T00:33:09;0.80;99.90
15113;DHT22;7657;50.140;7.076;2023-02-28T00:35:37;0.70;99.90
15113;DHT22;7657;50.140;7.076;2023-02-28T00:38:04;0.60;99.90
15113;DHT22;7657;50.140;7.076;2023-02-28T00:40:31;0.60;99.90
15113;DHT22;7657;50.140;7.076;2023-02-28T00:42:58;0.60;99.90
15113;DHT22;7657;50.140;7.076;2023-02-28T00:45:25;0.50;99.90
15113;DHT22;7657;50.140;7.076;2023-02-28T00:47:53;0.40;99.90
15113;DHT22;7657;50.140;7.076;2023-02-28T00:50:21;0.30;99.90
15113;DHT22;7657;50.140;7.076;2023-02-28T00:52:48;0.40;99.90
15113;DHT22;7657;50.140;7.076;2023-02-28T00:55:15;0.30;99.90
15113;DHT22;7657;50.140;7.076;2023-02-28T00:57:42;0.20;99.90
15113;DHT22;7657;50.140;7.076;2023-02-28T01:00:10;0.30;99.90
15113;DHT22;7657;50.140;7.076;2023-02-28T01:02:37;0.30;99.90
15113;DHT22;7657;50.140;7.076;2023-02-28T01:05:06;0.40;99.90
15113;DHT22;7657;50.140;7.076;2023-02-28T01:07:33;0.40;99.90
15113;DHT22;7657;50.140;7.076;2023-02-28T01:10:00;0.20;99.90
15113;DHT22;7657;50.140;7.076;2023-02-28T01:12:26;0.20;99.90
15113;DHT22;7657;50.140;7.076;2023-02-28T01:14:53;0.10;99.90
15113;DHT22;7657;50.140;7.076;2023-02-28T01:17:20;0.10;99.90
15113;DHT22;7657;50.140;7.076;2023-02-28T01:19:47;0.10;99.90
15113;DHT22;7657;50.140;7.076;2023-02-28T01:22:15;0.10;99.90
15113;DHT22;7657;50.140;7.076;2023-02-28T01:24:42;0.10;99.90
15113;DHT22;7657;50.140;7.076;2023-02-28T01:27:09;0.10;99.90
15113;DHT22;7657;50.140;7.076;2023-02-28T01:29:36;0.10;99.90
15113;DHT22;7657;50.140;7.076;2023-02-28T01:32:03;0.10;99.90
15113;DHT22;7657;50.140;7.076;2023-02-28T01:34:30;0.10;99.90
15113;DHT22;7657;50.140;7.076;2023-02-28T01:36:57;0.20;99.90
15113;DHT22;7657;50.140;7.076;2023-02-28T01:39:25;0.30;99.90
15113;DHT22;7657;50.140;7.076;2023-02-28T01:41:53;0.20;99.90
15113;DHT22;7657;50.140;7.076;2023-02-28T01:44:58;0.20;99.90
15113;DHT22;7657;50.140;7.076;2023-02-28T01:47:28;0.10;99.90
15113;DHT22;7657;50.140;7.076;2023-02-28T01:49:55;0.00;99.90
15113;DHT22;7657;50.140;7.076;2023-02-28T01:52:23;0.10;99.90
15113;DHT22;7657;50.140;7.076;2023-02-28T01:54:54;0.00;99.90
15113;DHT22;7657;50.140;7.076;2023-02-28T01:57:24;-0.10;99.90
15113;DHT22;7657;50.140;7.076;2023-02-28T01:59:55;-0.10;99.90
15113;DHT22;7657;50.140;7.076;2023-02-28T02:02:25;-0.10;99.90
15113;DHT22;7657;50.140;7.076;2023-02-28T02:04:55;0.00;99.90
15113;DHT22;7657;50.140;7.076;2023-02-28T02:07:23;-0.10;99.90
15113;DHT22;7657;50.140;7.076;2023-02-28T02:10:00;-0.10;99.90
15113;DHT22;7657;50.140;7.076;2023-02-28T02:12:34;-0.20;99.90
15113;DHT22;7657;50.140;7.076;2023-02-28T02:15:08;-0.20;99.90
15113;DHT22;7657;50.140;7.076;2023-02-28T02:17:41;-0.20;99.90
15113;DHT22;7657;50.140;7.076;2023-02-28T02:20:51;-0.10;99.90
15113;DHT22;7657;50.140;7.076;2023-02-28T02:26:50;-0.10;99.90
15113;DHT22;7657;50.140;7.076;2023-02-28T02:32:34;-0.20;99.90
15113;DHT22;7657;50.140;7.076;2023-02-28T02:35:11;-0.30;99.90
15113;DHT22;7657;50.140;7.076;2023-02-28T02:37:45;-0.30;99.90
15113;DHT22;7657;50.140;7.076;2023-02-28T02:40:16;-0.20;99.90
15113;DHT22;7657;50.140;7.076;2023-02-28T02:42:50;-0.20;99.90
15113;DHT22;7657;50.140;7.076;2023-02-28T02:45:23;-0.20;99.90
15113;DHT22;7657;50.140;7.076;2023-02-28T02:47:52;-0.30;99.90
15113;DHT22;7657;50.140;7.076;2023-02-28T02:50:24;-0.30;99.90
15113;DHT22;7657;50.140;7.076;2023-02-28T02:52:56;-0.10;99.90
15113;DHT22;7657;50.140;7.076;2023-02-28T02:55:26;-0.10;99.90
15113;DHT22;7657;50.140;7.076;2023-02-28T02:57:56;-0.20;99.90
15113;DHT22;7657;50.140;7.076;2023-02-28T03:00:29;-0.20;99.90
15113;DHT22;7657;50.140;7.076;2023-02-28T03:02:58;-0.30;99.90
15113;DHT22;7657;50.140;7.076;2023-02-28T03:05:30;-0.30;99.90
15113;DHT22;7657;50.140;7.076;2023-02-28T03:07:59;-0.40;99.90
15113;DHT22;7657;50.140;7.076;2023-02-28T03:10:34;-0.40;99.90
15113;DHT22;7657;50.140;7.076;2023-02-28T03:15:58;-0.40;99.90
15113;DHT22;7657;50.140;7.076;2023-02-28T03:18:32;-0.50;99.90
15113;DHT22;7657;50.140;7.076;2023-02-28T03:21:08;-0.60;99.90
15113;DHT22;7657;50.140;7.076;2023-02-28T03:23:45;-0.50;99.90
15113;DHT22;7657;50.140;7.076;2023-02-28T03:26:20;-0.50;99.90
15113;DHT22;7657;50.140;7.076;2023-02-28T03:28:53;-0.60;99.90
15113;DHT22;7657;50.140;7.076;2023-02-28T03:31:27;-0.60;99.90
15113;DHT22;7657;50.140;7.076;2023-02-28T03:33:59;-0.60;99.90
15113;DHT22;7657;50.140;7.076;2023-02-28T03:36:32;-0.70;99.90
15113;DHT22;7657;50.140;7.076;2023-02-28T03:39:04;-0.70;99.90
15113;DHT22;7657;50.140;7.076;2023-02-28T03:41:36;-0.60;99.90
15113;DHT22;7657;50.140;7.076;2023-02-28T03:44:08;-0.60;99.90
15113;DHT22;7657;50.140;7.076;2023-02-28T03:46:44;-0.60;99.90
15113;DHT22;7657;50.140;7.076;2023-02-28T03:49:16;-0.70;99.90
15113;DHT22;7657;50.140;7.076;2023-02-28T03:51:45;-0.70;99.90
15113;DHT22;7657;50.140;7.076;2023-02-28T03:54:15;-0.70;99.90
15113;DHT22;7657;50.140;7.076;2023-02-28T03:56:47;-0.60;99.90
15113;DHT22;7657;50.140;7.076;2023-02-28T03:59:17;-0.70;99.90
15113;DHT22;7657;50.140;7.076;2023-02-28T04:01:48;-0.70;99.90
15113;DHT22;7657;50.140;7.076;2023-02-28T04:04:16;-0.70;99.90
15113;DHT22;7657;50.140;7.076;2023-02-28T04:06:44;-0.70;99.90
15113;DHT22;7657;50.140;7.076;2023-02-28T04:09:13;-0.70;99.90
15113;DHT22;7657;50.140;7.076;2023-02-28T04:11:42;-0.70;99.90
15113;DHT22;7657;50.140;7.076;2023-02-28T04:14:11;-0.70;99.90
15113;DHT22;7657;50.140;7.076;2023-02-28T04:16:40;-0.70;99.90
15113;DHT22;7657;50.140;7.076;2023-02-28T04:19:09;-0.80;99.90
15113;DHT22;7657;50.140;7.076;2023-02-28T04:21:37;-0.80;99.90
15113;DHT22;7657;50.140;7.076;2023-02-28T04:24:07;-0.80;99.90
15113;DHT22;7657;50.140;7.076;2023-02-28T04:26:40;-0.90;99.90
15113;DHT22;7657;50.140;7.076;2023-02-28T04:29:10;-0.80;99.90
15113;DHT22;7657;50.140;7.076;2023-02-28T04:31:37;-0.80;99.90
15113;DHT22;7657;50.140;7.076;2023-02-28T04:34:04;-0.90;99.90
15113;DHT22;7657;50.140;7.076;2023-02-28T04:36:31;-0.80;99.90
15113;DHT22;7657;50.140;7.076;2023-02-28T04:38:58;-0.90;99.90
15113;DHT22;7657;50.140;7.076;2023-02-28T04:41:26;-0.90;99.90
15113;DHT22;7657;50.140;7.076;2023-02-28T04:43:53;-0.90;99.90
15113;DHT22;7657;50.140;7.076;2023-02-28T04:46:22;-0.90;99.90
15113;DHT22;7657;50.140;7.076;2023-02-28T04:48:49;-0.80;99.90
15113;DHT22;7657;50.140;7.076;2023-02-28T04:51:17;-0.90;99.90
15113;DHT22;7657;50.140;7.076;2023-02-28T04:53:45;-1.00;99.90
15113;DHT22;7657;50.140;7.076;2023-02-28T04:56:14;-1.10;99.90
15113;DHT22;7657;50.140;7.076;2023-02-28T04:58:42;-1.10;99.90
15113;DHT22;7657;50.140;7.076;2023-02-28T05:01:18;-1.10;99.90
15113;DHT22;7657;50.140;7.076;2023-02-28T05:03:46;-1.10;99.90
15113;DHT22;7657;50.140;7.076;2023-02-28T05:06:13;-1.10;99.90
15113;DHT22;7657;50.140;7.076;2023-02-28T05:08:41;-1.10;99.90
15113;DHT22;7657;50.140;7.076;2023-02-28T05:11:14;-1.20;99.90
15113;DHT22;7657;50.140;7.076;2023-02-28T05:13:42;-1.30;99.90
15113;DHT22;7657;50.140;7.076;2023-02-28T05:16:09;-1.30;99.90
15113;DHT22;7657;50.140;7.076;2023-02-28T05:18:36;-1.30;99.90
15113;DHT22;7657;50.140;7.076;2023-02-28T05:21:03;-1.30;99.90
15113;DHT22;7657;50.140;7.076;2023-02-28T05:23:30;-1.40;99.90
15113;DHT22;7657;50.140;7.076;2023-02-28T05:25:57;-1.30;99.90
15113;DHT22;7657;50.140;7.076;2023-02-28T05:28:24;-1.30;99.90
15113;DHT22;7657;50.140;7.076;2023-02-28T05:30:52;-1.30;99.90
15113;DHT22;7657;50.140;7.076;2023-02-28T05:33:19;-1.30;99.90
15113;DHT22;7657;50.140;7.076;2023-02-28T05:35:46;-1.30;99.90
15113;DHT22;7657;50.140;7.076;2023-02-28T05:38:12;-1.40;99.90
15113;DHT22;7657;50.140;7.076;2023-02-28T05:40:39;-1.40;99.90
15113;DHT22;7657;50.140;7.076;2023-02-28T05:43:10;-1.50;99.90
15113;DHT22;7657;50.140;7.076;2023-02-28T05:45:37;-1.50;99.90
15113;DHT22;7657;50.140;7.076;2023-02-28T05:48:05;-1.50;99.90
15113;DHT22;7657;50.140;7.076;2023-02-28T05:50:32;-1.40;99.90
15113;DHT22;7657;50.140;7.076;2023-02-28T05:52:59;-1.50;99.90
15113;DHT22;7657;50.140;7.076;2023-02-28T05:55:26;-1.50;99.90
15113;DHT22;7657;50.140;7.076;2023-02-28T05:57:53;-1.40;99.90
15113;DHT22;7657;50.140;7.076;2023-02-28T06:00:20;-1.30;99.90
15113;DHT22;7657;50.140;7.076;2023-02-28T06:02:47;-1.40;99.90
15113;DHT22;7657;50.140;7.076;2023-02-28T06:05:17;-1.60;99.90
15113;DHT22;7657;50.140;7.076;2023-02-28T06:07:44;-1.60;99.90
15113;DHT22;7657;50.140;7.076;2023-02-28T06:10:11;-1.60;99.90
15113;DHT22;7657;50.140;7.076;2023-02-28T06:12:38;-1.60;99.90
15113;DHT22;7657;50.140;7.076;2023-02-28T06:15:09;-1.50;99.90
15113;DHT22;7657;50.140;7.076;2023-02-28T06:17:38;-1.60;99.90
15113;DHT22;7657;50.140;7.076;2023-02-28T06:20:06;-1.70;99.90
15113;DHT22;7657;50.140;7.076;2023-02-28T06:22:35;-1.60;99.90
15113;DHT22;7657;50.140;7.076;2023-02-28T06:25:02;-1.70;99.90
15113;DHT22;7657;50.140;7.076;2023-02-28T06:27:30;-1.60;99.90
15113;DHT22;7657;50.140;7.076;2023-02-28T06:29:57;-1.70;99.90
15113;DHT22;7657;50.140;7.076;2023-02-28T06:32:24;-1.70;99.90
15113;DHT22;7657;50.140;7.076;2023-02-28T06:34:52;-1.80;99.90
15113;DHT22;7657;50.140;7.076;2023-02-28T06:37:19;-1.90;99.90
15113;DHT22;7657;50.140;7.076;2023-02-28T06:39:47;-1.70;99.90
15113;DHT22;7657;50.140;7.076;2023-02-28T06:42:14;-1.70;99.90
15113;DHT22;7657;50.140;7.076;2023-02-28T06:44:41;-1.70;99.90
15113;DHT22;7657;50.140;7.076;2023-02-28T06:47:08;-1.70;99.90
15113;DHT22;7657;50.140;7.076;2023-02-28T06:49:36;-1.70;99.90
15113;DHT22;7657;50.140;7.076;2023-02-28T06:52:04;-1.60;99.90
15113;DHT22;7657;50.140;7.076;2023-02-28T06:54:31;-1.60;99.90
15113;DHT22;7657;50.140;7.076;2023-02-28T06:56:59;-1.50;99.90
15113;DHT22;7657;50.140;7.076;2023-02-28T06:59:26;-1.30;99.90
15113;DHT22;7657;50.140;7.076;2023-02-28T07:01:53;-1.30;99.90
15113;DHT22;7657;50.140;7.076;2023-02-28T07:04:20;-1.30;99.90
15113;DHT22;7657;50.140;7.076;2023-02-28T07:06:47;-1.30;99.90
15113;DHT22;7657;50.140;7.076;2023-02-28T07:09:14;-1.30;99.90
15113;DHT22;7657;50.140;7.076;2023-02-28T07:11:41;-1.40;99.90
15113;DHT22;7657;50.140;7.076;2023-02-28T07:14:10;-1.40;99.90
15113;DHT22;7657;50.140;7.076;2023-02-28T07:16:37;-1.30;99.90
15113;DHT22;7657;50.140;7.076;2023-02-28T07:19:04;-1.20;99.90
15113;DHT22;7657;50.140;7.076;2023-02-28T07:21:31;-1.20;99.90
15113;DHT22;7657;50.140;7.076;2023-02-28T07:23:58;-1.10;99.90
15113;DHT22;7657;50.140;7.076;2023-02-28T07:26:25;-1.00;99.90
15113;DHT22;7657;50.140;7.076;2023-02-28T07:28:51;-1.00;99.90
15113;DHT22;7657;50.140;7.076;2023-02-28T07:31:21;-1.00;99.90
15113;DHT22;7657;50.140;7.076;2023-02-28T07:33:47;-1.00;99.90
15113;DHT22;7657;50.140;7.076;2023-02-28T07:36:16;-0.90;99.90
15113;DHT22;7657;50.140;7.076;2023-02-28T07:38:46;-0.90;99.90
15113;DHT22;7657;50.140;7.076;2023-02-28T07:41:15;-0.80;99.90
15113;DHT22;7657;50.140;7.076;2023-02-28T07:43:42;-0.70;99.90
15113;DHT22;7657;50.140;7.076;2023-02-28T07:46:11;-0.70;99.90
15113;DHT22;7657;50.140;7.076;2023-02-28T07:48:42;-0.80;99.90
15113;DHT22;7657;50.140;7.076;2023-02-28T07:51:09;-0.70;99.90
15113;DHT22;7657;50.140;7.076;2023-02-28T07:53:36;-0.60;99.90
15113;DHT22;7657;50.140;7.076;2023-02-28T07:56:04;-0.90;99.90
15113;DHT22;7657;50.140;7.076;2023-02-28T07:58:31;-0.90;99.90
15113;DHT22;7657;50.140;7.076;2023-02-28T08:01:05;-0.90;99.90
15113;DHT22;7657;50.140;7.076;2023-02-28T08:03:33;-0.90;99.90
15113;DHT22;7657;50.140;7.076;2023-02-28T08:06:02;-0.80;99.90
15113;DHT22;7657;50.140;7.076;2023-02-28T08:08:29;-0.60;99.90
15113;DHT22;7657;50.140;7.076;2023-02-28T08:10:58;-0.70;99.90
15113;DHT22;7657;50.140;7.076;2023-02-28T08:13:26;-0.70;99.90
15113;DHT22;7657;50.140;7.076;2023-02-28T08:15:53;-0.80;99.90
15113;DHT22;7657;50.140;7.076;2023-02-28T08:18:21;-0.80;99.90
15113;DHT22;7657;50.140;7.076;2023-02-28T08:20:48;-0.90;99.90
15113;DHT22;7657;50.140;7.076;2023-02-28T08:23:16;-0.90;99.90
15113;DHT22;7657;50.140;7.076;2023-02-28T08:25:43;-0.80;99.90
15113;DHT22;7657;50.140;7.076;2023-02-28T08:28:10;-0.90;99.90
15113;DHT22;7657;50.140;7.076;2023-02-28T08:30:37;-0.90;99.90
15113;DHT22;7657;50.140;7.076;2023-02-28T08:33:06;-0.90;99.90
15113;DHT22;7657;50.140;7.076;2023-02-28T08:35:35;-0.90;99.90
15113;DHT22;7657;50.140;7.076;2023-02-28T08:38:02;-0.80;99.90
15113;DHT22;7657;50.140;7.076;2023-02-28T08:40:30;-1.00;99.90
15113;DHT22;7657;50.140;7.076;2023-02-28T08:42:57;-0.90;99.90
15113;DHT22;7657;50.140;7.076;2023-02-28T08:45:25;-0.80;99.90
15113;DHT22;7657;50.140;7.076;2023-02-28T08:47:53;-0.70;99.90
15113;DHT22;7657;50.140;7.076;2023-02-28T08:50:21;-0.70;99.90
15113;DHT22;7657;50.140;7.076;2023-02-28T08:52:48;-0.70;99.90
15113;DHT22;7657;50.140;7.076;2023-02-28T08:55:14;-0.70;99.90
15113;DHT22;7657;50.140;7.076;2023-02-28T08:57:43;-0.70;99.90
15113;DHT22;7657;50.140;7.076;2023-02-28T09:00:11;-0.70;99.90
15113;DHT22;7657;50.140;7.076;2023-02-28T09:02:39;-0.70;99.90
15113;DHT22;7657;50.140;7.076;2023-02-28T09:05:06;-0.60;99.90
15113;DHT22;7657;50.140;7.076;2023-02-28T09:07:34;-0.60;99.90
15113;DHT22;7657;50.140;7.076;2023-02-28T09:10:01;-0.50;99.90
15113;DHT22;7657;50.140;7.076;2023-02-28T09:12:33;-0.40;99.90
15113;DHT22;7657;50.140;7.076;2023-02-28T09:15:02;-0.30;99.90
15113;DHT22;7657;50.140;7.076;2023-02-28T09:17:29;-0.30;99.90
15113;DHT22;7657;50.140;7.076;2023-02-28T09:19:56;-0.30;99.90
15113;DHT22;7657;50.140;7.076;2023-02-28T09:22:23;-0.20;99.90
15113;DHT22;7657;50.140;7.076;2023-02-28T09:24:50;-0.10;99.90
15113;DHT22;7657;50.140;7.076;2023-02-28T09:27:17;-0.10;99.90
15113;DHT22;7657;50.140;7.076;2023-02-28T09:29:44;0.00;99.90
15113;DHT22;7657;50.140;7.076;2023-02-28T09:32:12;0.00;99.90
15113;DHT22;7657;50.140;7.076;2023-02-28T09:34:39;-0.10;99.90
15113;DHT22;7657;50.140;7.076;2023-02-28T09:37:07;0.00;99.90
15113;DHT22;7657;50.140;7.076;2023-02-28T09:39:34;0.00;99.90
15113;DHT22;7657;50.140;7.076;2023-02-28T09:42:02;0.00;99.90
15113;DHT22;7657;50.140;7.076;2023-02-28T09:44:33;0.00;99.90
15113;DHT22;7657;50.140;7.076;2023-02-28T09:47:07;0.00;99.90
15113;DHT22;7657;50.140;7.076;2023-02-28T09:49:41;0.10;99.90
15113;DHT22;7657;50.140;7.076;2023-02-28T09:52:11;0.20;99.90
15113;DHT22;7657;50.140;7.076;2023-02-28T09:54:39;0.30;99.90
15113;DHT22;7657;50.140;7.076;2023-02-28T09:57:08;0.40;99.90
15113;DHT22;7657;50.140;7.076;2023-02-28T09:59:49;0.50;99.90
15113;DHT22;7657;50.140;7.076;2023-02-28T10:02:41;0.60;99.90
15113;DHT22;7657;50.140;7.076;2023-02-28T10:05:14;0.70;99.90
15113;DHT22;7657;50.140;7.076;2023-02-28T10:07:53;0.80;99.90
15113;DHT22;7657;50.140;7.076;2023-02-28T10:10:28;1.10;99.90
15113;DHT22;7657;50.140;7.076;2023-02-28T10:12:58;1.10;99.90
15113;DHT22;7657;50.140;7.076;2023-02-28T10:15:27;1.30;99.90
15113;DHT22;7657;50.140;7.076;2023-02-28T10:17:58;1.40;99.90
15113;DHT22;7657;50.140;7.076;2023-02-28T10:20:28;1.20;99.90
15113;DHT22;7657;50.140;7.076;2023-02-28T10:23:02;1.00;99.90
15113;DHT22;7657;50.140;7.076;2023-02-28T10:25:34;1.10;99.90
15113;DHT22;7657;50.140;7.076;2023-02-28T10:28:09;1.20;99.90
15113;DHT22;7657;50.140;7.076;2023-02-28T10:30:38;1.30;99.90
15113;DHT22;7657;50.140;7.076;2023-02-28T10:33:17;1.30;99.90
15113;DHT22;7657;50.140;7.076;2023-02-28T10:35:47;1.20;99.90
15113;DHT22;7657;50.140;7.076;2023-02-28T10:38:17;1.30;99.90
15113;DHT22;7657;50.140;7.076;2023-02-28T10:40:45;1.50;99.90
15113;DHT22;7657;50.140;7.076;2023-02-28T10:43:23;1.40;99.90
15113;DHT22;7657;50.140;7.076;2023-02-28T10:45:57;1.50;99.90
15113;DHT22;7657;50.140;7.076;2023-02-28T10:48:37;1.80;99.90
15113;DHT22;7657;50.140;7.076;2023-02-28T10:51:07;1.80;99.90
15113;DHT22;7657;50.140;7.076;2023-02-28T10:53:38;1.80;99.90
15113;DHT22;7657;50.140;7.076;2023-02-28T10:56:15;1.80;99.90
15113;DHT22;7657;50.140;7.076;2023-02-28T10:58:49;1.70;99.90
15113;DHT22;7657;50.140;7.076;2023-02-28T11:01:17;1.70;99.90
15113;DHT22;7657;50.140;7.076;2023-02-28T11:03:45;1.80;99.90
15113;DHT22;7657;50.140;7.076;2023-02-28T11:06:22;1.90;99.90
15113;DHT22;7657;50.140;7.076;2023-02-28T11:08:52;1.90;99.90
15113;DHT22;7657;50.140;7.076;2023-02-28T11:11:20;2.00;99.90
15113;DHT22;7657;50.140;7.076;2023-02-28T11:13:51;1.90;99.90
15113;DHT22;7657;50.140;7.076;2023-02-28T11:16:19;1.80;99.90
15113;DHT22;7657;50.140;7.076;2023-02-28T11:18:49;1.80;99.90
15113;DHT22;7657;50.140;7.076;2023-02-28T11:21:23;1.90;99.90
15113;DHT22;7657;50.140;7.076;2023-02-28T11:23:56;2.00;99.90
15113;DHT22;7657;50.140;7.076;2023-02-28T11:26:37;1.80;99.90
15113;DHT22;7657;50.140;7.076;2023-02-28T11:29:11;2.00;99.90
15113;DHT22;7657;50.140;7.076;2023-02-28T11:31:39;2.10;99.90
15113;DHT22;7657;50.140;7.076;2023-02-28T11:34:24;2.30;99.90
15113;DHT22;7657;50.140;7.076;2023-02-28T11:36:54;2.30;99.90
15113;DHT22;7657;50.140;7.076;2023-02-28T11:39:23;2.20;99.90
15113;DHT22;7657;50.140;7.076;2023-02-28T11:42:06;2.30;99.90
15113;DHT22;7657;50.140;7.076;2023-02-28T11:44:48;2.50;99.90
15113;DHT22;7657;50.140;7.076;2023-02-28T11:47:29;2.30;99.90
15113;DHT22;7657;50.140;7.076;2023-02-28T11:50:16;2.50;99.90
15113;DHT22;7657;50.140;7.076;2023-02-28T11:52:52;2.30;99.90
15113;DHT22;7657;50.140;7.076;2023-02-28T11:55:25;2.30;99.90
15113;DHT22;7657;50.140;7.076;2023-02-28T11:58:17;2.50;99.90
15113;DHT22;7657;50.140;7.076;2023-02-28T12:01:01;2.80;99.90
15113;DHT22;7657;50.140;7.076;2023-02-28T12:03:43;3.00;99.90
15113;DHT22;7657;50.140;7.076;2023-02-28T12:06:18;3.20;99.90
15113;DHT22;7657;50.140;7.076;2023-02-28T12:09:01;3.30;99.90
15113;DHT22;7657;50.140;7.076;2023-02-28T12:11:36;3.30;99.90
15113;DHT22;7657;50.140;7.076;2023-02-28T12:14:31;3.40;99.90
15113;DHT22;7657;50.140;7.076;2023-02-28T12:17:12;3.40;99.90
15113;DHT22;7657;50.140;7.076;2023-02-28T12:19:45;3.30;99.90
15113;DHT22;7657;50.140;7.076;2023-02-28T12:22:28;3.50;99.90
15113;DHT22;7657;50.140;7.076;2023-02-28T12:27:56;3.40;99.90
15113;DHT22;7657;50.140;7.076;2023-02-28T12:30:25;3.40;99.90
15113;DHT22;7657;50.140;7.076;2023-02-28T12:32:56;3.40;99.90
15113;DHT22;7657;50.140;7.076;2023-02-28T12:35:28;3.20;99.90
15113;DHT22;7657;50.140;7.076;2023-02-28T12:38:04;3.20;99.90
15113;DHT22;7657;50.140;7.076;2023-02-28T12:40:39;3.20;99.90
15113;DHT22;7657;50.140;7.076;2023-02-28T12:43:10;3.30;99.90
15113;DHT22;7657;50.140;7.076;2023-02-28T12:45:41;3.10;99.90
15113;DHT22;7657;50.140;7.076;2023-02-28T12:48:13;3.00;99.90
15113;DHT22;7657;50.140;7.076;2023-02-28T12:50:42;2.90;99.90
15113;DHT22;7657;50.140;7.076;2023-02-28T12:53:13;2.90;99.90
15113;DHT22;7657;50.140;7.076;2023-02-28T12:55:45;3.10;99.90
15113;DHT22;7657;50.140;7.076;2023-02-28T12:58:20;3.10;99.90
15113;DHT22;7657;50.140;7.076;2023-02-28T13:01:08;3.10;99.90
15113;DHT22;7657;50.140;7.076;2023-02-28T13:07:23;3.40;99.90
15113;DHT22;7657;50.140;7.076;2023-02-28T13:09:56;3.30;99.90
15113;DHT22;7657;50.140;7.076;2023-02-28T13:12:24;3.50;99.90
15113;DHT22;7657;50.140;7.076;2023-02-28T13:15:03;3.60;99.90
15113;DHT22;7657;50.140;7.076;2023-02-28T13:17:31;3.60;99.90
15113;DHT22;7657;50.140;7.076;2023-02-28T13:20:00;3.40;99.90
15113;DHT22;7657;50.140;7.076;2023-02-28T13:22:39;3.20;99.90
15113;DHT22;7657;50.140;7.076;2023-02-28T13:34:39;3.00;99.90
15113;DHT22;7657;50.140;7.076;2023-02-28T13:37:37;3.20;99.90
15113;DHT22;7657;50.140;7.076;2023-02-28T13:40:27;3.10;99.90
15113;DHT22;7657;50.140;7.076;2023-02-28T13:42:54;3.10;99.90
15113;DHT22;7657;50.140;7.076;2023-02-28T13:45:26;3.10;99.90
15113;DHT22;7657;50.140;7.076;2023-02-28T13:47:58;3.10;99.90
15113;DHT22;7657;50.140;7.076;2023-02-28T13:50:32;3.30;99.90
15113;DHT22;7657;50.140;7.076;2023-02-28T13:56:10;3.60;99.90
15113;DHT22;7657;50.140;7.076;2023-02-28T13:58:53;3.70;99.90
15113;DHT22;7657;50.140;7.076;2023-02-28T14:01:40;3.50;99.90
15113;DHT22;7657;50.140;7.076;2023-02-28T14:04:50;3.40;99.90
15113;DHT22;7657;50.140;7.076;2023-02-28T14:07:22;3.40;99.90
15113;DHT22;7657;50.140;7.076;2023-02-28T14:09:56;3.50;99.90
15113;DHT22;7657;50.140;7.076;2023-02-28T14:12:55;3.60;99.90
15113;DHT22;7657;50.140;7.076;2023-02-28T14:18:19;3.50;99.90
15113;DHT22;7657;50.140;7.076;2023-02-28T14:20:51;3.40;99.90
15113;DHT22;7657;50.140;7.076;2023-02-28T14:23:36;3.40;99.90
15113;DHT22;7657;50.140;7.076;2023-02-28T14:26:19;3.40;99.90
15113;DHT22;7657;50.140;7.076;2023-02-28T14:29:05;3.40;99.90
15113;DHT22;7657;50.140;7.076;2023-02-28T14:31:38;3.40;99.90
15113;DHT22;7657;50.140;7.076;2023-02-28T14:34:29;3.40;99.90
15113;DHT22;7657;50.140;7.076;2023-02-28T14:37:02;3.60;99.90
15113;DHT22;7657;50.140;7.076;2023-02-28T14:39:30;3.70;99.90
15113;DHT22;7657;50.140;7.076;2023-02-28T14:41:58;3.60;99.90
15113;DHT22;7657;50.140;7.076;2023-02-28T14:44:29;3.50;99.90
15113;DHT22;7657;50.140;7.076;2023-02-28T14:46:57;3.60;99.90
15113;DHT22;7657;50.140;7.076;2023-02-28T14:49:31;3.60;99.90
15113;DHT22;7657;50.140;7.076;2023-02-28T14:52:06;3.50;99.90
15113;DHT22;7657;50.140;7.076;2023-02-28T14:54:35;3.60;99.90
15113;DHT22;7657;50.140;7.076;2023-02-28T14:57:03;3.60;99.90
15113;DHT22;7657;50.140;7.076;2023-02-28T14:59:32;3.50;99.90
15113;DHT22;7657;50.140;7.076;2023-02-28T15:02:19;3.50;99.90
15113;DHT22;7657;50.140;7.076;2023-02-28T15:04:54;3.60;99.90
15113;DHT22;7657;50.140;7.076;2023-02-28T15:07:24;3.50;99.90
15113;DHT22;7657;50.140;7.076;2023-02-28T15:10:20;3.40;99.90
15113;DHT22;7657;50.140;7.076;2023-02-28T15:12:52;3.50;99.90
15113;DHT22;7657;50.140;7.076;2023-02-28T15:15:20;3.60;99.90
15113;DHT22;7657;50.140;7.076;2023-02-28T15:17:51;3.40;99.90
15113;DHT22;7657;50.140;7.076;2023-02-28T15:20:20;3.30;99.90
15113;DHT22;7657;50.140;7.076;2023-02-28T15:22:50;3.30;99.90
15113;DHT22;7657;50.140;7.076;2023-02-28T15:25:19;3.30;99.90
15113;DHT22;7657;50.140;7.076;2023-02-28T15:27:48;3.30;99.90
15113;DHT22;7657;50.140;7.076;2023-02-28T15:30:18;3.20;99.90
15113;DHT22;7657;50.140;7.076;2023-02-28T15:33:02;3.20;99.90
15113;DHT22;7657;50.140;7.076;2023-02-28T15:35:32;3.30;99.90
15113;DHT22;7657;50.140;7.076;2023-02-28T15:38:03;3.40;99.90
15113;DHT22;7657;50.140;7.076;2023-02-28T15:40:33;3.40;99.90
15113;DHT22;7657;50.140;7.076;2023-02-28T15:43:06;3.20;99.90
15113;DHT22;7657;50.140;7.076;2023-02-28T15:45:38;3.20;99.90
15113;DHT22;7657;50.140;7.076;2023-02-28T15:48:18;3.30;99.90
15113;DHT22;7657;50.140;7.076;2023-02-28T15:50:49;3.20;99.90
15113;DHT22;7657;50.140;7.076;2023-02-28T15:53:21;3.40;99.90
15113;DHT22;7657;50.140;7.076;2023-02-28T15:55:54;3.40;99.90
15113;DHT22;7657;50.140;7.076;2023-02-28T15:58:22;3.40;99.90
15113;DHT22;7657;50.140;7.076;2023-02-28T16:01:05;3.40;99.90
15113;DHT22;7657;50.140;7.076;2023-02-28T16:03:40;3.40;99.90
15113;DHT22;7657;50.140;7.076;2023-02-28T16:06:38;3.20;99.90
15113;DHT22;7657;50.140;7.076;2023-02-28T16:09:09;3.20;99.90
15113;DHT22;7657;50.140;7.076;2023-02-28T16:11:39;3.30;99.90
15113;DHT22;7657;50.140;7.076;2023-02-28T16:14:13;3.30;99.90
15113;DHT22;7657;50.140;7.076;2023-02-28T16:16:45;3.20;99.90
15113;DHT22;7657;50.140;7.076;2023-02-28T16:19:13;3.20;99.90
15113;DHT22;7657;50.140;7.076;2023-02-28T16:21:40;3.00;99.90
15113;DHT22;7657;50.140;7.076;2023-02-28T16:24:08;3.10;99.90
15113;DHT22;7657;50.140;7.076;2023-02-28T16:26:35;3.00;99.90
15113;DHT22;7657;50.140;7.076;2023-02-28T16:29:05;3.00;99.90
15113;DHT22;7657;50.140;7.076;2023-02-28T16:31:36;3.00;99.90
15113;DHT22;7657;50.140;7.076;2023-02-28T16:34:04;3.10;99.90
15113;DHT22;7657;50.140;7.076;2023-02-28T16:36:32;2.90;99.90
15113;DHT22;7657;50.140;7.076;2023-02-28T16:38:59;2.80;99.90
15113;DHT22;7657;50.140;7.076;2023-02-28T16:41:28;2.80;99.90
15113;DHT22;7657;50.140;7.076;2023-02-28T16:43:57;2.90;99.90
15113;DHT22;7657;50.140;7.076;2023-02-28T16:46:29;2.80;99.90
15113;DHT22;7657;50.140;7.076;2023-02-28T16:48:57;2.70;99.90
15113;DHT22;7657;50.140;7.076;2023-02-28T16:51:24;2.70;99.90